Terminal Aerodrome Forecast
Issued by NWS

Home | Current Version | Previous Version | Text Only | Print | Product List | Glossary On
Versions: 1 2 3 4 5 6 7 8 9 10 11 12 13 14
000
FTUS46 KPDT 011100
TAFALW
TAF
KALW 011129Z 0112/0212 VRB06KT P6SM SCT150
     FM011800 24007KT P6SM SCT200
     FM012300 17007KT P6SM VCTS SCT120CB BKN200
     FM020500 12007KT P6SM FEW150 SCT200=

USA.gov is the U.S. government's official web portal to all federal, state and local government web resources and services.